Time;durP1;ratioP1;P1;durP2;ratioP2;P2;SDS_P1;SDS_P2;PMS_P1;PMS_P2;Temp;Humidity;BMP_temperature;BMP_pressure;BME280_temperature;BME280_humidity;BME280_pressure;Samples;Min_cycle;Max_cycle;Signal;HPM_P1;HPM_P2
2023/07/07 00:01:49;;;;;;;5.03;2.77;;;;;;;14.60;96.81;155061.16;4990273;28;20096;-73
2023/07/07 00:04:15;;;;;;;7.90;3.13;;;;;;;14.54;96.76;155046.91;4990396;28;20038;-72
2023/07/07 00:06:41;;;;;;;4.80;2.57;;;;;;;14.56;95.89;155050.81;4990840;28;20109;-73
2023/07/07 00:09:07;;;;;;;5.80;2.78;;;;;;;14.49;95.75;155032.59;4998721;28;20520;-73
2023/07/07 00:11:32;;;;;;;7.70;3.20;;;;;;;14.41;96.23;155013.13;4988350;28;20034;-72
2023/07/07 00:13:58;;;;;;;9.03;2.97;;;;;;;14.39;95.70;155006.63;4985456;28;20080;-73
2023/07/07 00:16:27;;;;;;;10.33;3.13;;;;;;;14.36;96.20;154998.84;4989476;28;20398;-72
2023/07/07 00:18:54;;;;;;;5.88;3.13;;;;;;;14.29;97.13;154980.66;4987018;28;20046;-72
2023/07/07 00:21:24;;;;;;;6.72;3.03;;;;;;;14.28;98.29;154978.06;4989649;28;20049;-72
2023/07/07 00:23:55;;;;;;;5.97;3.20;;;;;;;14.25;98.32;154971.56;4987269;28;20036;-72
2023/07/07 00:26:21;;;;;;;3.97;3.22;;;;;;;14.26;99.71;154972.88;4991495;28;20030;-73
2023/07/07 00:28:47;;;;;;;5.55;3.75;;;;;;;14.28;100.00;154978.06;4989266;28;20391;-72
2023/07/07 00:31:14;;;;;;;8.88;3.13;;;;;;;14.16;99.01;154946.84;4988051;28;20037;-73
2023/07/07 00:33:39;;;;;;;13.60;3.30;;;;;;;14.13;100.00;154940.38;4981066;28;20045;-72
2023/07/07 00:36:04;;;;;;;8.50;3.07;;;;;;;14.14;100.00;154941.69;4986853;28;20042;-72
2023/07/07 00:38:30;;;;;;;6.30;2.80;;;;;;;14.13;100.00;154940.38;4984338;28;20038;-73
2023/07/07 00:40:59;;;;;;;14.13;3.97;;;;;;;14.11;100.00;154935.19;4988893;28;20026;-72
2023/07/07 00:43:26;;;;;;;7.95;3.20;;;;;;;14.13;100.00;154939.03;4988025;28;20046;-73
2023/07/07 00:45:52;;;;;;;9.38;3.15;;;;;;;14.08;100.00;154927.38;4988233;28;20035;-73
2023/07/07 00:48:24;;;;;;;5.17;2.90;;;;;;;14.01;100.00;154907.91;4993250;28;20054;-73
2023/07/07 00:51:00;;;;;;;5.75;3.08;;;;;;;14.02;100.00;154911.81;4989821;28;20030;-73
2023/07/07 00:53:27;;;;;;;7.05;3.20;;;;;;;14.02;100.00;154911.81;4993220;28;20053;-73
2023/07/07 00:55:58;;;;;;;7.25;3.92;;;;;;;13.96;100.00;154894.91;4989040;28;20027;-73
2023/07/07 00:58:25;;;;;;;5.22;3.30;;;;;;;13.94;100.00;154889.75;4991506;28;20030;-74
2023/07/07 01:01:14;;;;;;;6.50;3.95;;;;;;;13.92;100.00;154885.84;4989899;28;20027;-73
2023/07/07 01:03:48;;;;;;;10.27;3.50;;;;;;;13.91;100.00;154881.94;4992384;28;20030;-73
2023/07/07 01:06:18;;;;;;;13.75;3.55;;;;;;;13.86;100.00;154868.97;4974426;28;20045;-73
2023/07/07 01:08:50;;;;;;;8.05;3.40;;;;;;;13.84;100.00;154863.78;4986849;28;20115;-72
2023/07/07 01:11:19;;;;;;;11.00;3.50;;;;;;;13.79;100.00;154852.13;4993200;28;20088;-73
2023/07/07 01:13:44;;;;;;;9.65;3.00;;;;;;;13.76;100.00;154844.31;4992467;28;20100;-73
2023/07/07 01:16:28;;;;;;;6.82;3.33;;;;;;;13.71;100.00;154830.06;4991352;28;20041;-73
2023/07/07 01:19:22;;;;;;;7.90;3.75;;;;;;;13.68;100.00;154823.56;4990794;28;20054;-73
2023/07/07 01:22:26;;;;;;;7.22;3.65;;;;;;;13.71;100.00;154831.34;4985413;28;20049;-73
2023/07/07 01:25:12;;;;;;;8.25;3.80;;;;;;;13.67;100.00;154820.94;4989326;28;20076;-73
2023/07/07 01:27:42;;;;;;;6.97;4.10;;;;;;;13.59;100.00;154798.88;4990847;28;20092;-73
2023/07/07 01:30:32;;;;;;;7.13;3.70;;;;;;;13.65;100.00;154814.44;4986080;28;20030;-73
2023/07/07 01:33:02;;;;;;;8.65;3.60;;;;;;;13.67;100.00;154819.66;4988774;28;20026;-73
2023/07/07 01:35:28;;;;;;;6.75;3.78;;;;;;;13.63;100.00;154809.28;4990147;28;20026;-73
2023/07/07 01:37:59;;;;;;;6.87;3.90;;;;;;;13.61;100.00;154805.38;4993946;28;20089;-73
2023/07/07 01:40:52;;;;;;;7.43;3.75;;;;;;;13.59;100.00;154798.88;4988044;28;20485;-73
2023/07/07 01:43:29;;;;;;;10.82;3.88;;;;;;;13.54;100.00;154787.22;4990696;28;20068;-73
2023/07/07 01:46:08;;;;;;;7.97;3.80;;;;;;;13.56;100.00;154792.38;4989770;28;20483;-73
2023/07/07 01:49:13;;;;;;;9.07;4.00;;;;;;;13.48;100.00;154771.66;4987815;28;20039;-73
2023/07/07 01:52:02;;;;;;;9.23;4.38;;;;;;;13.45;100.00;154763.84;4991120;28;20029;-73
2023/07/07 01:54:32;;;;;;;9.52;4.50;;;;;;;13.45;100.00;154762.59;4991500;28;20032;-73
2023/07/07 01:56:59;;;;;;;6.88;4.40;;;;;;;13.44;100.00;154760.00;4990769;28;20089;-74
2023/07/07 01:59:27;;;;;;;13.93;4.40;;;;;;;13.41;100.00;154753.50;4991577;28;20104;-73
2023/07/07 02:01:53;;;;;;;6.63;4.63;;;;;;;13.45;100.00;154762.59;4987069;28;20382;-73
2023/07/07 02:04:18;;;;;;;13.43;5.00;;;;;;;13.40;100.00;154750.88;4994779;28;20030;-73
2023/07/07 02:06:43;;;;;;;10.57;5.57;;;;;;;13.42;100.00;154754.78;4984398;28;20030;-73
2023/07/07 02:09:09;;;;;;;8.17;4.60;;;;;;;13.41;100.00;154753.50;4990158;28;20437;-73
2023/07/07 02:11:34;;;;;;;10.30;5.17;;;;;;;13.45;100.00;154762.59;4988091;28;20046;-73
2023/07/07 02:14:00;;;;;;;6.83;4.50;;;;;;;13.38;100.00;154745.69;4992328;28;20029;-74
2023/07/07 02:16:26;;;;;;;10.73;5.23;;;;;;;13.42;100.00;154754.78;4985715;28;20034;-73
2023/07/07 02:18:52;;;;;;;11.15;5.22;;;;;;;13.41;100.00;154753.50;4991818;28;20050;-73
2023/07/07 02:21:18;;;;;;;9.53;4.80;;;;;;;13.34;100.00;154734.03;4990045;28;20034;-73
2023/07/07 02:23:44;;;;;;;11.73;5.35;;;;;;;13.39;100.00;154747.03;4987588;28;20438;-73
2023/07/07 02:26:11;;;;;;;10.70;6.40;;;;;;;13.35;100.00;154736.63;4988236;28;20030;-73
2023/07/07 02:28:36;;;;;;;15.10;5.53;;;;;;;13.37;100.00;154743.13;4989882;28;20193;-73
2023/07/07 02:31:02;;;;;;;11.97;5.87;;;;;;;13.36;100.00;154739.22;4989096;28;20072;-73
2023/07/07 02:33:33;;;;;;;11.87;5.43;;;;;;;13.36;100.00;154740.53;4985982;28;20157;-73
2023/07/07 02:36:01;;;;;;;10.45;5.70;;;;;;;13.40;100.00;154750.88;4992138;28;20509;-73
2023/07/07 02:38:27;;;;;;;9.05;5.57;;;;;;;13.37;100.00;154741.78;4988693;28;20026;-73
2023/07/07 02:40:52;;;;;;;8.48;4.85;;;;;;;13.38;100.00;154744.38;4991027;28;20172;-73
2023/07/07 02:43:18;;;;;;;14.07;5.60;;;;;;;13.36;100.00;154739.22;4972980;28;20121;-73
2023/07/07 02:45:44;;;;;;;9.00;5.53;;;;;;;13.36;100.00;154740.53;4986539;28;20149;-73
2023/07/07 02:48:09;;;;;;;9.85;4.85;;;;;;;13.37;100.00;154743.13;4990519;28;20505;-76
2023/07/07 02:50:35;;;;;;;7.17;4.60;;;;;;;13.32;100.00;154730.13;4994282;28;20030;-73
2023/07/07 02:53:00;;;;;;;9.60;5.40;;;;;;;13.36;100.00;154740.53;4991138;28;20462;-73
2023/07/07 02:55:25;;;;;;;8.60;5.67;;;;;;;13.41;100.00;154752.19;4989212;28;20030;-74
2023/07/07 02:57:51;;;;;;;10.43;4.43;;;;;;;13.36;100.00;154740.53;4986833;28;20041;-73
2023/07/07 03:00:16;;;;;;;8.77;4.63;;;;;;;13.36;100.00;154739.22;4990373;28;20036;-72
2023/07/07 03:02:43;;;;;;;8.43;4.77;;;;;;;13.34;100.00;154735.31;4990086;28;20030;-73
2023/07/07 03:05:09;;;;;;;17.05;4.95;;;;;;;13.31;100.00;154726.25;4992892;28;20077;-72
2023/07/07 03:07:34;;;;;;;6.95;4.57;;;;;;;13.31;100.00;154727.56;4986277;28;20046;-73
2023/07/07 03:09:59;;;;;;;10.10;4.40;;;;;;;13.38;100.00;154744.38;4991864;28;20394;-74
2023/07/07 03:12:25;;;;;;;7.67;4.40;;;;;;;13.35;100.00;154737.91;4988106;28;20104;-73
2023/07/07 03:14:56;;;;;;;7.07;4.33;;;;;;;13.48;100.00;154770.34;4989740;28;20026;-72
2023/07/07 03:17:22;;;;;;;6.25;4.35;;;;;;;13.55;100.00;154788.53;4987502;28;20037;-73
2023/07/07 03:19:52;;;;;;;8.23;3.97;;;;;;;13.56;100.00;154791.13;4992456;28;20479;-72
2023/07/07 03:22:17;;;;;;;8.85;4.57;;;;;;;13.57;100.00;154793.72;4988458;28;20497;-73
2023/07/07 03:24:44;;;;;;;12.03;4.30;;;;;;;13.67;100.00;154820.94;4992355;28;20030;-72
2023/07/07 03:27:09;;;;;;;6.15;4.18;;;;;;;13.67;100.00;154819.66;4972290;28;20494;-73
2023/07/07 03:29:35;;;;;;;6.70;3.80;;;;;;;13.70;100.00;154827.44;4990073;28;20104;-73
2023/07/07 03:32:00;;;;;;;11.43;4.00;;;;;;;13.63;100.00;154810.59;4989170;28;20053;-73
2023/07/07 03:34:25;;;;;;;7.30;4.30;;;;;;;13.62;100.00;154807.97;4988011;28;20033;-73
2023/07/07 03:36:51;;;;;;;11.27;4.27;;;;;;;13.55;100.00;154788.53;4989397;28;20030;-72
2023/07/07 03:39:16;;;;;;;8.07;4.03;;;;;;;13.55;100.00;154788.53;4991905;28;20041;-73
2023/07/07 03:41:42;;;;;;;10.17;3.83;;;;;;;13.51;100.00;154779.41;4987571;28;20030;-74
2023/07/07 03:44:07;;;;;;;9.27;3.77;;;;;;;13.46;100.00;154766.44;4991683;28;20038;-73
2023/07/07 03:46:33;;;;;;;6.50;3.70;;;;;;;13.42;100.00;154754.78;4986084;28;20062;-73
2023/07/07 03:48:59;;;;;;;7.07;3.73;;;;;;;13.41;100.00;154753.50;4992009;28;20414;-74
2023/07/07 03:51:26;;;;;;;6.27;4.63;;;;;;;13.40;100.00;154749.59;4989044;28;20096;-73
2023/07/07 03:53:52;;;;;;;6.07;4.28;;;;;;;13.38;100.00;154745.69;4991324;28;20026;-74
2023/07/07 03:56:19;;;;;;;8.87;3.73;;;;;;;13.31;100.00;154727.56;4988014;28;20517;-74
2023/07/07 03:58:45;;;;;;;9.23;3.65;;;;;;;13.37;100.00;154743.13;4990207;28;20287;-74
2023/07/07 04:01:13;;;;;;;9.70;3.80;;;;;;;13.37;100.00;154741.78;4989230;28;20390;-74
2023/07/07 04:03:47;;;;;;;5.15;3.58;;;;;;;13.40;100.00;154749.59;4990686;28;20106;-74
2023/07/07 04:06:17;;;;;;;6.35;4.07;;;;;;;13.38;100.00;154745.69;4987263;28;20042;-74
2023/07/07 04:08:42;;;;;;;12.13;6.47;;;;;;;13.37;100.00;154741.78;4986874;28;20032;-73
2023/07/07 04:11:16;;;;;;;12.87;7.40;;;;;;;13.36;100.00;154740.53;4989959;28;20026;-74
2023/07/07 04:13:44;;;;;;;7.47;5.00;;;;;;;13.42;100.00;154754.78;4984097;28;20038;-74
2023/07/07 04:16:16;;;;;;;9.23;4.70;;;;;;;13.51;100.00;154779.41;4971294;28;20477;-73
2023/07/07 04:18:44;;;;;;;7.95;4.22;;;;;;;13.53;100.00;154783.31;4987601;28;20058;-74
2023/07/07 04:21:12;;;;;;;7.20;4.13;;;;;;;13.58;100.00;154796.28;4988505;28;20046;-74
2023/07/07 04:23:40;;;;;;;7.65;3.67;;;;;;;13.61;100.00;154805.38;4985556;28;20059;-73
2023/07/07 04:26:06;;;;;;;7.63;3.60;;;;;;;13.62;100.00;154806.69;4987841;28;20069;-74
2023/07/07 04:28:35;;;;;;;6.40;3.60;;;;;;;13.59;100.00;154800.19;4979730;28;20061;-72
2023/07/07 04:31:01;;;;;;;8.27;3.35;;;;;;;13.62;100.00;154807.97;4984809;28;20109;-73
2023/07/07 04:33:28;;;;;;;16.10;4.93;;;;;;;13.69;100.00;154824.84;4987611;28;20467;-72
2023/07/07 04:35:55;;;;;;;10.10;3.65;;;;;;;13.73;100.00;154835.22;4982464;28;20076;-73
2023/07/07 04:38:23;;;;;;;6.82;3.63;;;;;;;13.77;100.00;154846.91;4988294;28;20042;-73
2023/07/07 04:40:49;;;;;;;7.03;3.90;;;;;;;13.85;100.00;154866.38;4984005;28;20034;-73
2023/07/07 04:43:14;;;;;;;10.73;4.90;;;;;;;14.03;100.00;154914.41;4990057;28;20406;-74
2023/07/07 04:45:40;;;;;;;6.03;3.27;;;;;;;14.20;100.00;154958.56;4990044;28;20031;-73
2023/07/07 04:48:08;;;;;;;9.87;3.63;;;;;;;14.45;98.83;155023.50;4987287;28;20110;-72
2023/07/07 04:50:34;;;;;;;6.40;3.75;;;;;;;14.71;97.07;155091.06;4989799;28;20443;-73
2023/07/07 04:53:00;;;;;;;9.77;3.83;;;;;;;14.99;94.04;155162.50;4991670;28;20038;-72
2023/07/07 04:55:28;;;;;;;8.70;4.13;;;;;;;15.14;92.84;155201.44;4987626;28;20026;-72
2023/07/07 04:57:54;;;;;;;10.68;3.70;;;;;;;15.17;92.99;155210.59;4982892;28;20057;-72
2023/07/07 05:00:19;;;;;;;8.73;3.20;;;;;;;15.24;93.15;155228.75;4985437;28;20445;-72
2023/07/07 05:02:46;;;;;;;9.23;3.70;;;;;;;15.30;93.00;155243.03;4981164;28;20148;-72
2023/07/07 05:05:11;;;;;;;7.50;3.45;;;;;;;15.49;91.91;155292.47;4986462;28;20058;-73
2023/07/07 05:07:37;;;;;;;8.67;3.60;;;;;;;15.66;89.99;155337.97;4989113;28;20061;-73
2023/07/07 05:10:04;;;;;;;8.17;3.07;;;;;;;15.70;90.26;155348.34;4984900;28;20092;-73
2023/07/07 05:12:30;;;;;;;8.93;3.25;;;;;;;15.94;88.69;155409.44;4985744;28;20026;-73
2023/07/07 05:14:55;;;;;;;7.53;3.20;;;;;;;16.24;87.61;155487.47;4989623;28;20073;-73
2023/07/07 05:17:20;;;;;;;10.47;3.03;;;;;;;16.61;85.51;155585.09;4987839;28;20039;-72
2023/07/07 05:19:46;;;;;;;7.83;3.07;;;;;;;17.30;84.49;155763.31;4986963;28;20503;-73
2023/07/07 05:22:11;;;;;;;7.53;2.67;;;;;;;18.43;76.84;156059.00;4989229;28;20065;-74
2023/07/07 05:24:37;;;;;;;17.50;3.03;;;;;;;19.54;74.33;156348.28;4984147;28;20438;-74
2023/07/07 05:27:02;;;;;;;6.70;3.37;;;;;;;20.43;68.56;156579.22;4986817;28;20050;-71
2023/07/07 05:29:28;;;;;;;12.80;3.07;;;;;;;21.25;64.30;156793.25;4990051;28;20463;-74
2023/07/07 05:31:53;;;;;;;7.37;2.40;;;;;;;21.98;63.95;156985.25;4988949;28;20038;-72
2023/07/07 05:34:20;;;;;;;8.87;3.07;;;;;;;22.64;60.41;157156.44;4992558;28;20390;-73
2023/07/07 05:36:45;;;;;;;14.27;2.70;;;;;;;23.14;60.90;157288.44;4989624;28;20076;-72
2023/07/07 05:39:11;;;;;;;4.27;2.40;;;;;;;23.74;55.99;157444.09;4992589;28;20066;-73
2023/07/07 05:41:37;;;;;;;5.13;2.72;;;;;;;24.07;54.53;157530.44;4991849;28;20041;-72
2023/07/07 05:44:02;;;;;;;11.43;2.67;;;;;;;24.60;51.97;157669.16;4989157;28;20042;-72
2023/07/07 05:46:28;;;;;;;9.23;2.80;;;;;;;24.42;54.33;157622.00;4990506;28;20379;-72
2023/07/07 05:48:53;;;;;;;7.27;2.50;;;;;;;24.88;53.72;157742.44;4992160;28;20065;-72
2023/07/07 05:51:19;;;;;;;6.35;2.53;;;;;;;25.41;50.29;157882.59;4992620;28;20034;-74
2023/07/07 05:53:45;;;;;;;;;;;;;;;25.61;51.44;157933.63;4992078;28;20042;-72
2023/07/07 05:56:24;;;;;;;9.30;2.35;;;;;;;25.95;49.40;158024.06;4990777;28;19921;-71
2023/07/07 05:58:53;;;;;;;4.63;2.50;;;;;;;25.84;47.94;157995.19;4985374;28;20026;-73
2023/07/07 06:01:20;;;;;;;9.73;2.20;;;;;;;25.44;49.95;157890.41;4993256;28;20172;-72
2023/07/07 06:03:46;;;;;;;9.80;2.55;;;;;;;25.23;50.80;157835.38;4988219;28;20026;-72
2023/07/07 06:06:13;;;;;;;7.13;2.58;;;;;;;26.34;47.25;158126.19;4990681;28;20474;-71
2023/07/07 06:08:40;;;;;;;7.35;2.10;;;;;;;26.53;46.90;158174.69;4989762;28;20030;-74
2023/07/07 06:11:06;;;;;;;9.02;2.88;;;;;;;26.73;45.13;158228.44;4990547;28;20034;-72
2023/07/07 06:13:32;;;;;;;9.70;2.95;;;;;;;27.25;42.61;158363.47;4987944;28;20030;-71
2023/07/07 06:15:57;;;;;;;;;;;;;;;27.16;44.93;158339.88;4992227;28;20073;-72
2023/07/07 06:18:23;;;;;;;7.80;2.83;;;;;;;27.82;42.10;158513.00;4990840;28;20390;-72
2023/07/07 06:20:52;;;;;;;;;;;;;;;27.23;42.38;158359.59;4991429;28;20466;-72
2023/07/07 06:23:18;;;;;;;6.65;2.55;;;;;;;27.26;42.17;158367.41;4986899;28;20349;-72
2023/07/07 06:25:43;;;;;;;;;;;;;;;27.97;40.56;158553.69;4985830;28;20025;-73
2023/07/07 06:28:09;;;;;;;6.35;2.55;;;;;;;27.60;41.99;158455.28;4990742;28;19913;-72
2023/07/07 06:30:34;;;;;;;;;;;;;;;27.62;42.78;158460.50;4984994;28;20100;-72
2023/07/07 06:33:00;;;;;;;6.82;2.67;;;;;;;28.23;39.63;158620.56;4989993;28;19913;-72
2023/07/07 06:35:26;;;;;;;;;;;;;;;28.35;39.41;158652.03;4990940;28;20022;-72
2023/07/07 06:37:51;;;;;;;5.60;2.60;;;;;;;28.21;39.95;158615.28;4993246;28;19913;-73
2023/07/07 06:40:16;;;;;;;;;;;;;;;28.22;40.63;158619.25;4990580;28;20390;-72
2023/07/07 06:42:42;;;;;;;5.03;2.50;;;;;;;27.84;40.92;158518.28;4989891;28;19910;-72
2023/07/07 06:45:07;;;;;;;;;;;;;;;28.76;38.70;158759.69;4990919;28;20034;-72
2023/07/07 06:47:33;;;;;;;7.68;2.85;;;;;;;28.90;37.86;158797.75;4991775;28;19909;-72
2023/07/07 06:49:58;;;;;;;;;;;;;;;29.02;38.90;158828.00;4992172;28;20034;-72
2023/07/07 06:52:23;;;;;;;6.07;3.00;;;;;;;28.83;37.97;158779.38;4989054;28;20291;-72
2023/07/07 06:54:48;;;;;;;;;;;;;;;29.21;37.10;158877.84;4988480;28;20141;-72
2023/07/07 06:57:14;;;;;;;10.10;2.85;;;;;;;28.49;38.91;158690.13;4989915;28;20404;-72
2023/07/07 06:59:39;;;;;;;;;;;;;;;28.58;38.96;158712.44;4989078;28;20022;-73
2023/07/07 07:02:09;;;;;;;9.63;2.83;;;;;;;28.26;39.07;158628.41;4990350;28;20411;-72
2023/07/07 07:04:34;;;;;;;12.15;2.83;;;;;;;28.82;39.45;158776.72;4981383;28;20026;-72
2023/07/07 07:07:00;;;;;;;;;;;;;;;28.66;40.38;158733.44;4987857;28;20493;-73
2023/07/07 07:09:25;;;;;;;9.13;2.70;;;;;;;28.58;39.36;158712.44;4987737;28;19968;-72
2023/07/07 07:11:50;;;;;;;;;;;;;;;28.73;37.16;158751.78;4991986;28;20264;-72
2023/07/07 07:14:16;;;;;;;7.93;3.03;;;;;;;28.50;39.67;158691.47;4991050;28;20348;-72
2023/07/07 07:16:41;;;;;;;;;;;;;;;28.73;39.93;158753.13;4989223;28;20802;-72
2023/07/07 07:19:06;;;;;;;8.23;2.40;;;;;;;28.61;37.97;158721.66;4987211;28;19970;-71
2023/07/07 07:21:32;;;;;;;;;;;;;;;28.45;38.56;158678.34;4984774;28;20355;-73
2023/07/07 07:23:57;;;;;;;7.85;2.67;;;;;;;28.69;38.33;158741.28;4984579;28;20040;-72
2023/07/07 07:26:22;;;;;;;;;;;;;;;28.20;38.00;158612.69;4987247;28;21290;-72
2023/07/07 07:28:48;;;;;;;11.95;2.95;;;;;;;27.54;38.78;158439.53;4982375;28;19922;-72
2023/07/07 07:31:14;;;;;;;5.88;2.60;;;;;;;28.21;38.81;158615.28;4992400;28;20041;-72
2023/07/07 07:33:40;;;;;;;7.40;2.72;;;;;;;28.44;38.64;158677.00;4989172;28;20474;-72
2023/07/07 07:36:05;;;;;;;7.37;2.90;;;;;;;28.06;40.13;158577.25;4991130;28;20116;-72
2023/07/07 07:38:30;;;;;;;9.13;2.95;;;;;;;28.47;39.90;158683.56;4991185;28;20748;-72
2023/07/07 07:40:56;;;;;;;9.15;2.67;;;;;;;27.89;39.21;158531.34;4988562;28;20034;-71
2023/07/07 07:43:22;;;;;;;10.43;2.47;;;;;;;27.89;38.54;158531.34;4989456;28;20058;-72
2023/07/07 07:45:51;;;;;;;4.30;2.30;;;;;;;28.26;39.33;158628.41;4990742;28;20054;-72
2023/07/07 07:48:16;;;;;;;13.30;2.95;;;;;;;28.31;38.75;158641.53;4992246;28;20361;-72
2023/07/07 07:50:42;;;;;;;6.13;2.50;;;;;;;27.95;38.80;158547.13;4992225;28;20070;-73
2023/07/07 07:53:07;;;;;;;8.83;2.93;;;;;;;28.01;40.29;158564.16;4985299;28;20283;-73
2023/07/07 07:55:32;;;;;;;12.23;3.13;;;;;;;28.31;39.89;158641.53;4989561;28;20280;-74
2023/07/07 07:57:58;;;;;;;7.27;2.60;;;;;;;28.27;40.24;158631.06;4990599;28;20040;-73
2023/07/07 08:00:23;;;;;;;8.33;2.60;;;;;;;27.59;41.45;158453.94;4987958;28;20044;-73
2023/07/07 08:03:04;;;;;;;4.07;2.38;;;;;;;27.98;40.61;158554.97;4985744;28;20719;-72
2023/07/07 08:05:32;;;;;;;8.93;2.80;;;;;;;27.54;39.97;158439.53;4982831;28;20035;-72
2023/07/07 08:07:59;;;;;;;13.20;3.22;;;;;;;27.67;42.19;158473.59;4985530;28;20033;-73
2023/07/07 08:10:25;;;;;;;4.47;2.28;;;;;;;27.40;40.98;158402.81;4985121;28;20092;-72
2023/07/07 08:12:50;;;;;;;5.30;3.03;;;;;;;27.58;40.51;158451.31;4986148;28;20030;-73
2023/07/07 08:15:16;;;;;;;5.53;2.43;;;;;;;27.30;42.24;158377.91;4983457;28;20042;-74
2023/07/07 08:17:48;;;;;;;14.23;3.43;;;;;;;27.44;42.81;158413.31;4986470;28;20066;-74
2023/07/07 08:20:17;;;;;;;16.33;3.40;;;;;;;27.29;42.93;158373.97;4987468;28;20529;-73
2023/07/07 08:22:59;;;;;;;11.98;2.20;;;;;;;27.32;42.19;158383.16;4990558;28;20070;-74
2023/07/07 08:25:27;;;;;;;12.20;2.60;;;;;;;27.48;41.78;158423.81;4989211;28;20038;-74
2023/07/07 08:27:53;;;;;;;12.23;2.38;;;;;;;27.55;42.10;158442.16;4988383;28;20023;-74
2023/07/07 08:30:18;;;;;;;;;;;;;;;27.43;42.12;158410.69;4986292;28;20054;-74
2023/07/07 08:32:44;;;;;;;7.32;3.65;;;;;;;27.60;42.09;158455.28;4989979;28;19971;-73
2023/07/07 08:35:11;;;;;;;5.77;2.20;;;;;;;27.48;42.12;158425.09;4989364;28;20441;-73
2023/07/07 08:37:36;;;;;;;6.22;2.45;;;;;;;27.60;42.52;158455.28;4987888;28;20280;-73
2023/07/07 08:40:02;;;;;;;7.17;2.27;;;;;;;27.24;41.79;158360.88;4987866;28;20157;-74
2023/07/07 08:42:27;;;;;;;;;;;;;;;27.36;42.55;158392.38;4990639;28;20068;-72
2023/07/07 08:44:55;;;;;;;7.60;2.27;;;;;;;27.03;42.07;158305.75;4987662;28;20351;-74
2023/07/07 08:47:47;;;;;;;5.07;1.90;;;;;;;27.42;41.41;158408.09;4985351;28;20295;-72
2023/07/07 08:50:36;;;;;;;7.68;2.55;;;;;;;27.35;40.67;158389.69;4987873;28;20054;-73
2023/07/07 08:53:08;;;;;;;6.00;2.10;;;;;;;27.34;41.18;158388.41;4990013;28;20610;-73
2023/07/07 08:55:55;;;;;;;5.72;2.30;;;;;;;27.32;40.01;158383.16;4987590;28;20030;-73
2023/07/07 08:58:29;;;;;;;7.90;2.58;;;;;;;27.36;40.45;158393.66;4988924;28;20557;-73
2023/07/07 09:01:13;;;;;;;4.45;2.42;;;;;;;27.49;39.21;158426.44;4986524;28;20026;-73
2023/07/07 09:03:53;;;;;;;4.28;2.22;;;;;;;27.66;39.05;158471.00;4989458;28;20038;-73
2023/07/07 09:06:31;;;;;;;6.90;2.33;;;;;;;27.55;38.29;158442.16;4986424;28;20122;-74
2023/07/07 09:09:05;;;;;;;5.25;2.55;;;;;;;27.53;37.69;158438.22;4993266;28;20109;-74
2023/07/07 09:12:02;;;;;;;4.68;2.20;;;;;;;27.66;38.58;158472.31;4993557;28;20030;-72
2023/07/07 09:14:28;;;;;;;5.95;2.15;;;;;;;27.75;37.49;158494.63;4987880;28;20042;-73
2023/07/07 09:17:03;;;;;;;4.68;2.00;;;;;;;27.86;37.12;158523.50;4992258;28;20739;-73
2023/07/07 09:19:40;;;;;;;4.22;1.98;;;;;;;27.99;37.55;158557.59;4990702;28;20518;-73
2023/07/07 09:22:17;;;;;;;23.60;2.65;;;;;;;27.86;36.29;158524.78;4993557;28;20109;-72
2023/07/07 09:24:47;;;;;;;4.60;2.15;;;;;;;27.92;36.79;158539.25;4989681;28;20134;-73
2023/07/07 09:27:16;;;;;;;4.57;2.22;;;;;;;28.19;37.47;158610.06;4993524;28;20453;-73
2023/07/07 09:29:45;;;;;;;8.27;2.72;;;;;;;28.03;34.65;158569.44;4993200;28;20026;-73
2023/07/07 09:32:12;;;;;;;2.92;2.25;;;;;;;28.12;34.31;158593.00;4993434;28;20498;-74
2023/07/07 09:34:39;;;;;;;3.90;2.10;;;;;;;28.23;34.80;158621.84;4993070;28;20437;-74
2023/07/07 09:37:32;;;;;;;3.58;2.30;;;;;;;28.59;35.61;158715.09;4993239;28;20034;-73
2023/07/07 09:40:18;;;;;;;4.07;2.47;;;;;;;28.62;34.18;158722.94;4990863;28;20482;-72
2023/07/07 09:43:10;;;;;;;3.60;2.50;;;;;;;28.66;34.29;158733.44;4989744;28;20030;-73
2023/07/07 09:46:06;;;;;;;3.92;2.20;;;;;;;28.74;34.24;158755.75;4988990;28;20034;-73
2023/07/07 09:49:01;;;;;;;4.55;2.58;;;;;;;28.65;35.23;158732.13;4989016;28;20478;-73
2023/07/07 09:51:42;;;;;;;6.03;2.70;;;;;;;28.80;32.71;158771.50;4988813;28;20077;-72
2023/07/07 09:54:11;;;;;;;6.95;2.15;;;;;;;28.56;34.14;158708.53;4992339;28;20100;-73
2023/07/07 09:56:52;;;;;;;7.65;2.30;;;;;;;28.97;33.47;158816.16;4991021;28;20126;-72
2023/07/07 09:59:25;;;;;;;18.98;2.40;;;;;;;29.08;32.16;158843.72;4989521;28;20364;-72
2023/07/07 10:01:55;;;;;;;4.65;2.30;;;;;;;29.22;32.70;158881.78;4987392;28;20334;-73
2023/07/07 10:04:21;;;;;;;5.97;2.58;;;;;;;29.23;32.34;158883.13;4991120;28;20038;-73
2023/07/07 10:07:06;;;;;;;;;;;;;;;29.46;32.56;158943.50;4990727;28;20026;-73
2023/07/07 10:09:31;;;;;;;7.82;2.25;;;;;;;29.48;31.23;158948.72;4990618;28;20017;-73
2023/07/07 10:11:58;;;;;;;9.70;2.55;;;;;;;29.52;31.37;158959.22;4987343;28;20889;-72
2023/07/07 10:14:27;;;;;;;5.15;2.83;;;;;;;29.21;30.92;158879.16;4987592;28;20065;-73
2023/07/07 10:17:08;;;;;;;5.80;2.17;;;;;;;29.10;30.88;158848.97;4992571;28;20421;-73
2023/07/07 10:19:40;;;;;;;4.40;2.25;;;;;;;29.43;31.64;158936.91;4989384;28;20092;-72
2023/07/07 10:22:07;;;;;;;3.53;2.72;;;;;;;29.58;31.55;158975.03;4988377;28;20030;-72
2023/07/07 10:24:32;;;;;;;4.18;2.63;;;;;;;30.01;31.81;159087.97;4990239;28;20030;-72
2023/07/07 10:26:58;;;;;;;3.55;2.30;;;;;;;29.78;30.61;159027.56;4991625;28;20033;-73
2023/07/07 10:29:28;;;;;;;;;;;;;;;29.68;29.70;159001.28;4991708;28;20030;-72
2023/07/07 10:31:53;;;;;;;7.47;2.63;;;;;;;29.62;29.60;158985.56;4988610;28;19941;-73
2023/07/07 10:34:30;;;;;;;4.30;2.40;;;;;;;29.83;29.60;159040.69;4988144;28;20042;-72
2023/07/07 10:36:57;;;;;;;9.50;2.67;;;;;;;29.92;29.48;159064.34;4990255;28;20092;-71
2023/07/07 10:39:25;;;;;;;5.45;2.53;;;;;;;30.05;29.65;159098.47;4982712;28;20101;-72
2023/07/07 10:41:51;;;;;;;4.60;2.67;;;;;;;30.38;29.86;159186.53;4989389;28;20038;-72
2023/07/07 10:44:16;;;;;;;3.65;2.25;;;;;;;30.24;29.95;159148.44;4989238;28;20289;-72
2023/07/07 10:46:42;;;;;;;7.70;2.72;;;;;;;30.28;29.49;159160.25;4987826;28;20529;-74
2023/07/07 10:49:14;;;;;;;7.15;2.50;;;;;;;30.22;28.52;159143.16;4987182;28;20113;-72
2023/07/07 10:51:58;;;;;;;3.53;2.00;;;;;;;30.09;29.38;159110.28;4985094;28;20120;-72
2023/07/07 10:54:50;;;;;;;3.58;2.58;;;;;;;30.26;29.25;159153.69;4981917;28;20483;-72
2023/07/07 10:57:34;;;;;;;6.03;2.30;;;;;;;30.46;29.58;159206.25;4988199;28;20022;-72
2023/07/07 11:00:36;;;;;;;7.70;2.55;;;;;;;30.77;29.16;159287.72;4979464;28;20145;-72
2023/07/07 11:03:24;;;;;;;5.30;2.72;;;;;;;30.42;29.24;159195.72;4982101;28;20062;-72
2023/07/07 11:06:00;;;;;;;7.82;2.60;;;;;;;30.90;27.77;159323.19;4979995;28;20676;-72
2023/07/07 11:08:26;;;;;;;6.33;2.67;;;;;;;30.69;28.29;159266.72;4983293;28;20034;-71
2023/07/07 11:11:12;;;;;;;6.10;2.58;;;;;;;30.87;28.29;159314.00;4982022;28;20060;-72
2023/07/07 11:13:58;;;;;;;5.85;2.97;;;;;;;30.48;28.30;159212.81;4980465;28;20521;-72
2023/07/07 11:16:59;;;;;;;4.63;2.70;;;;;;;30.53;27.02;159225.94;4983659;28;20026;-73
2023/07/07 11:19:44;;;;;;;8.77;2.75;;;;;;;30.19;28.33;159135.31;4984555;28;20633;-73
2023/07/07 11:22:47;;;;;;;3.88;2.70;;;;;;;30.41;27.81;159193.09;4982695;28;20033;-72
2023/07/07 11:25:23;;;;;;;11.27;3.42;;;;;;;30.46;28.26;159206.25;4989837;28;20030;-73
2023/07/07 11:27:57;;;;;;;7.57;3.20;;;;;;;30.61;27.98;159245.63;4984479;28;20034;-73
2023/07/07 11:30:56;;;;;;;6.20;2.47;;;;;;;30.66;27.42;159260.13;4983228;28;20125;-72
2023/07/07 11:33:29;;;;;;;4.88;2.88;;;;;;;30.90;26.36;159321.91;4987823;28;20026;-73
2023/07/07 11:36:10;;;;;;;4.68;2.60;;;;;;;30.79;26.52;159294.28;4985700;28;20093;-72
2023/07/07 11:38:53;;;;;;;6.38;2.97;;;;;;;30.82;25.90;159300.84;4984357;28;20498;-72